Time;durP1;ratioP1;P1;durP2;ratioP2;P2;SDS_P1;SDS_P2;PMS_P1;PMS_P2;Temp;Humidity;BMP_temperature;BMP_pressure;BME280_temperature;BME280_humidity;BME280_pressure;Samples;Min_cycle;Max_cycle;Signal;HPM_P1;HPM_P2
2023/10/12 00:00:56;;;;;;;8.43;2.83;;;;;;;16.88;100.00;96403.81;5036179;28;20204;-69
2023/10/12 00:03:25;;;;;;;5.03;2.60;;;;;;;16.90;100.00;96405.25;5035145;28;20232;-69
2023/10/12 00:05:51;;;;;;;4.80;2.83;;;;;;;16.82;100.00;96399.34;5036041;28;20209;-69
2023/10/12 00:08:30;;;;;;;3.42;2.42;;;;;;;16.73;100.00;96400.63;5035158;28;20204;-69
2023/10/12 00:10:56;;;;;;;6.45;2.60;;;;;;;16.68;100.00;96393.25;5036544;28;20907;-69
2023/10/12 00:13:28;;;;;;;7.18;2.58;;;;;;;16.90;100.00;96393.78;5035262;28;20841;-69
2023/10/12 00:15:56;;;;;;;5.32;2.75;;;;;;;16.63;100.00;96394.91;5035584;28;20209;-69
2023/10/12 00:18:22;;;;;;;10.50;3.20;;;;;;;16.58;100.00;96395.53;5034966;28;20232;-69
2023/10/12 00:20:53;;;;;;;5.25;2.65;;;;;;;16.76;100.00;96400.19;5036565;28;20213;-69
2023/10/12 00:23:19;;;;;;;8.52;3.28;;;;;;;16.67;100.00;96390.81;5034934;28;21149;-69
2023/10/12 00:25:47;;;;;;;5.35;2.47;;;;;;;16.81;100.00;96400.38;5035959;28;20197;-69
2023/10/12 00:28:16;;;;;;;7.25;2.80;;;;;;;16.80;100.00;96393.41;5035746;28;20664;-69
2023/10/12 00:30:46;;;;;;;5.78;2.97;;;;;;;16.95;100.00;96394.78;5037139;28;20250;-69
2023/10/12 00:33:13;;;;;;;9.90;2.97;;;;;;;16.77;100.00;96384.00;5038765;28;20640;-69
2023/10/12 00:35:40;;;;;;;7.43;3.03;;;;;;;16.62;100.00;96387.97;5039764;28;20209;-69
2023/10/12 00:38:17;;;;;;;6.85;3.40;;;;;;;16.64;100.00;96386.72;5039269;28;20212;-69
2023/10/12 00:40:51;;;;;;;6.72;2.92;;;;;;;16.97;100.00;96383.91;5040142;28;20609;-69
2023/10/12 00:43:18;;;;;;;4.35;2.67;;;;;;;16.68;100.00;96379.16;5038569;28;20236;-69
2023/10/12 00:45:46;;;;;;;4.28;2.60;;;;;;;16.72;100.00;96372.38;5040153;28;20300;-69
2023/10/12 00:48:16;;;;;;;7.85;2.30;;;;;;;16.29;100.00;96381.09;5037994;28;20227;-69
2023/10/12 00:50:44;;;;;;;9.90;3.75;;;;;;;16.37;100.00;96371.06;5040121;28;20228;-69
2023/10/12 00:53:22;;;;;;;7.78;3.15;;;;;;;16.55;100.00;96376.53;5038890;28;20776;-69
2023/10/12 00:55:49;;;;;;;9.27;3.03;;;;;;;16.42;100.00;96375.75;5039183;28;20251;-69
2023/10/12 00:58:17;;;;;;;5.90;2.90;;;;;;;16.31;100.00;96371.91;5038518;28;20224;-69
2023/10/12 01:00:45;;;;;;;8.13;2.97;;;;;;;16.49;100.00;96366.72;5039637;28;20208;-69
2023/10/12 01:03:35;;;;;;;6.45;2.95;;;;;;;16.63;100.00;96355.00;5038540;28;20263;-69
2023/10/12 01:06:20;;;;;;;6.38;2.60;;;;;;;16.63;100.00;96357.66;5038601;28;21103;-69
2023/10/12 01:08:47;;;;;;;10.20;2.67;;;;;;;16.52;100.00;96353.84;5039038;28;20212;-69
2023/10/12 01:11:20;;;;;;;5.40;2.58;;;;;;;16.56;100.00;96362.22;5038539;28;20217;-69
2023/10/12 01:13:49;;;;;;;8.20;3.40;;;;;;;16.70;100.00;96353.13;5038925;28;20228;-69
2023/10/12 01:16:23;;;;;;;6.60;2.40;;;;;;;16.63;100.00;96357.66;5038656;28;20205;-69
2023/10/12 01:18:57;;;;;;;8.55;3.00;;;;;;;16.78;100.00;96355.56;5038355;28;20205;-69
2023/10/12 01:21:23;;;;;;;4.57;2.58;;;;;;;16.54;100.00;96369.56;5039018;28;20205;-69
2023/10/12 01:23:51;;;;;;;6.05;3.17;;;;;;;16.63;100.00;96365.66;5039082;28;20244;-69
2023/10/12 01:26:18;;;;;;;6.63;2.72;;;;;;;16.54;100.00;96377.56;5038449;28;20205;-69
2023/10/12 01:28:49;;;;;;;6.53;2.78;;;;;;;16.53;100.00;96374.09;5038313;28;20212;-69
2023/10/12 01:31:25;;;;;;;5.70;2.65;;;;;;;16.58;100.00;96371.59;5038760;28;20228;-69
2023/10/12 01:33:54;;;;;;;4.45;2.10;;;;;;;16.45;100.00;96370.84;5038753;28;20225;-69
2023/10/12 01:36:22;;;;;;;8.27;2.63;;;;;;;16.42;100.00;96375.75;5038440;28;20422;-69
2023/10/12 01:38:51;;;;;;;5.93;2.60;;;;;;;16.34;100.00;96376.78;5039209;28;20201;-69
2023/10/12 01:41:26;;;;;;;6.53;2.72;;;;;;;16.32;100.00;96378.84;5038448;28;20197;-69
2023/10/12 01:43:53;;;;;;;7.20;2.72;;;;;;;16.24;100.00;96372.91;5037619;28;20282;-69
2023/10/12 01:46:21;;;;;;;9.23;2.97;;;;;;;16.16;100.00;96375.78;5038183;28;20247;-69
2023/10/12 01:48:49;;;;;;;7.57;3.03;;;;;;;16.16;100.00;96371.28;5038671;28;20209;-69
2023/10/12 01:51:24;;;;;;;8.13;2.92;;;;;;;16.12;100.00;96377.22;5037542;28;20290;-69
2023/10/12 01:53:56;;;;;;;5.70;3.03;;;;;;;16.24;100.00;96370.25;5038649;28;20256;-69
2023/10/12 01:56:27;;;;;;;7.20;2.75;;;;;;;15.96;100.00;96369.69;5037277;28;20201;-69
2023/10/12 01:58:54;;;;;;;12.75;2.80;;;;;;;15.88;100.00;96378.72;5037893;28;20205;-69
2023/10/12 02:01:21;;;;;;;7.13;2.67;;;;;;;15.80;100.00;96377.28;5038440;28;21048;-69
2023/10/12 02:03:54;;;;;;;6.60;2.40;;;;;;;15.78;100.00;96381.97;5038518;28;20737;-69
2023/10/12 02:06:28;;;;;;;7.53;3.05;;;;;;;15.75;100.00;96390.38;5037458;28;20228;-69
2023/10/12 02:09:02;;;;;;;9.27;2.95;;;;;;;15.90;100.00;96384.63;5035880;28;21230;-69
2023/10/12 02:11:36;;;;;;;7.45;2.83;;;;;;;15.68;100.00;96386.88;5037767;28;20235;-69
2023/10/12 02:14:04;;;;;;;9.30;2.70;;;;;;;15.69;100.00;96383.19;5037505;28;20306;-69
2023/10/12 02:16:31;;;;;;;4.47;2.47;;;;;;;15.56;100.00;96388.50;5036936;28;20205;-69
2023/10/12 02:19:00;;;;;;;7.55;3.25;;;;;;;15.49;100.00;96385.03;5037954;28;20314;-69
2023/10/12 02:21:27;;;;;;;4.43;2.28;;;;;;;15.43;100.00;96383.19;5036967;28;20207;-69
2023/10/12 02:23:57;;;;;;;5.90;2.58;;;;;;;15.50;100.00;96379.53;5037864;28;20224;-69
2023/10/12 02:26:30;;;;;;;4.97;2.53;;;;;;;15.42;100.00;96371.75;5037267;28;20211;-69
2023/10/12 02:29:04;;;;;;;6.35;3.03;;;;;;;15.34;100.00;96368.47;5037547;28;20224;-69
2023/10/12 02:31:30;;;;;;;5.20;2.30;;;;;;;15.22;100.00;96370.09;5036638;28;20813;-69
2023/10/12 02:34:00;;;;;;;5.88;3.08;;;;;;;15.24;100.00;96368.06;5037739;28;20225;-69
2023/10/12 02:36:28;;;;;;;7.40;3.00;;;;;;;15.33;100.00;96366.84;5037485;28;20288;-69
2023/10/12 02:38:58;;;;;;;10.10;2.67;;;;;;;15.54;100.00;96369.28;5036633;28;20259;-69
2023/10/12 02:41:26;;;;;;;4.15;2.60;;;;;;;15.32;100.00;96359.88;5037011;28;20314;-69
2023/10/12 02:43:55;;;;;;;4.22;2.30;;;;;;;15.33;100.00;96364.19;5037681;28;20225;-69
2023/10/12 02:46:23;;;;;;;5.93;2.63;;;;;;;15.37;100.00;96362.75;5036343;28;20691;-69
2023/10/12 02:48:50;;;;;;;5.15;2.53;;;;;;;15.24;100.00;96358.25;5037518;28;20193;-69
2023/10/12 02:51:18;;;;;;;3.45;2.00;;;;;;;15.22;100.00;96356.81;5037699;28;20815;-69
2023/10/12 02:53:47;;;;;;;4.90;2.30;;;;;;;15.25;100.00;96359.88;5035655;28;20217;-69
2023/10/12 02:56:21;;;;;;;4.20;2.40;;;;;;;15.31;100.00;96358.25;5036270;28;20331;-69
2023/10/12 02:58:48;;;;;;;6.43;2.85;;;;;;;15.05;100.00;96358.19;5037571;28;20205;-69
2023/10/12 03:01:19;;;;;;;5.43;2.20;;;;;;;15.14;100.00;96354.31;5036460;28;20296;-69
2023/10/12 03:03:49;;;;;;;8.43;2.80;;;;;;;14.92;100.00;96360.81;5035547;28;20600;-69
2023/10/12 03:06:21;;;;;;;5.10;2.47;;;;;;;14.89;100.00;96358.56;5036393;28;20310;-69
2023/10/12 03:09:02;;;;;;;9.97;2.50;;;;;;;14.88;100.00;96361.41;5036819;28;20209;-69
2023/10/12 03:11:31;;;;;;;5.65;3.05;;;;;;;14.80;100.00;96366.91;5036610;28;20330;-69
2023/10/12 03:14:00;;;;;;;6.03;2.03;;;;;;;14.86;100.00;96364.25;5036182;28;20335;-69
2023/10/12 03:16:33;;;;;;;9.73;2.70;;;;;;;14.85;100.00;96373.22;5036975;28;20224;-69
2023/10/12 03:19:17;;;;;;;4.50;2.80;;;;;;;14.71;100.00;96363.63;5035504;28;20738;-69
2023/10/12 03:21:46;;;;;;;5.67;2.90;;;;;;;14.54;100.00;96364.16;5036879;28;20756;-69
2023/10/12 03:24:14;;;;;;;6.70;2.90;;;;;;;14.50;100.00;96367.38;5036468;28;20216;-69
2023/10/12 03:26:48;;;;;;;3.97;2.50;;;;;;;14.58;100.00;96376.00;5036319;28;20212;-69
2023/10/12 03:29:19;;;;;;;5.97;2.60;;;;;;;14.33;100.00;96376.69;5035347;28;20201;-69
2023/10/12 03:31:53;;;;;;;8.63;3.10;;;;;;;14.24;100.00;96377.88;5037084;28;20654;-69
2023/10/12 03:34:35;;;;;;;5.83;2.90;;;;;;;14.29;100.00;96381.56;5036405;28;20236;-69
2023/10/12 03:37:03;;;;;;;4.60;2.73;;;;;;;14.29;100.00;96378.91;5036347;28;20208;-69
2023/10/12 03:39:31;;;;;;;6.20;2.97;;;;;;;14.27;100.00;96373.00;5036036;28;20255;-69
2023/10/12 03:42:41;;;;;;;8.00;3.47;;;;;;;14.42;100.00;96370.22;5036471;28;20193;-69
2023/10/12 03:45:08;;;;;;;6.80;2.90;;;;;;;14.28;100.00;96373.81;5035812;28;20201;-69
2023/10/12 03:47:47;;;;;;;5.57;2.93;;;;;;;14.27;100.00;96373.00;5036592;28;20205;-69
2023/10/12 03:50:17;;;;;;;10.23;3.10;;;;;;;14.21;100.00;96370.31;5036676;28;20205;-69
2023/10/12 03:52:52;;;;;;;10.30;3.20;;;;;;;14.24;100.00;96373.41;5036647;28;20225;-69
2023/10/12 03:55:25;;;;;;;5.90;2.60;;;;;;;14.22;100.00;96367.47;5036278;28;20209;-69
2023/10/12 03:58:05;;;;;;;6.13;3.17;;;;;;;14.43;100.00;96364.72;5035929;28;21094;-69
2023/10/12 04:00:41;;;;;;;9.50;3.27;;;;;;;14.02;100.00;96363.84;5036232;28;20212;-69
2023/10/12 04:03:12;;;;;;;6.80;2.73;;;;;;;14.26;100.00;96363.41;5035719;28;20285;-69
2023/10/12 04:05:50;;;;;;;8.13;2.77;;;;;;;14.18;100.00;96371.53;5035888;28;20205;-69
2023/10/12 04:16:45;;;;;;;5.83;3.00;;;;;;;14.10;100.00;96355.78;4973474;28;20793;-69
2023/10/12 04:19:15;;;;;;;6.07;3.40;;;;;;;14.03;100.00;96360.19;5021316;28;20224;-69
2023/10/12 04:21:57;;;;;;;6.17;2.73;;;;;;;14.04;100.00;96355.72;5036456;28;20206;-69
2023/10/12 04:24:29;;;;;;;4.67;2.37;;;;;;;14.10;100.00;96349.66;5036232;28;20208;-69
2023/10/12 04:27:11;;;;;;;5.17;2.87;;;;;;;14.15;100.00;96363.16;5035885;28;21416;-69
2023/10/12 04:29:39;;;;;;;4.30;2.47;;;;;;;14.25;100.00;96353.00;5035057;28;20251;-69
2023/10/12 04:32:10;;;;;;;5.80;2.53;;;;;;;14.17;100.00;96350.53;5035265;28;20229;-69
2023/10/12 04:34:46;;;;;;;4.53;2.57;;;;;;;14.18;100.00;96360.13;5035624;28;20208;-69
2023/10/12 04:37:18;;;;;;;5.13;2.70;;;;;;;14.41;100.00;96358.81;5035542;28;20221;-69
2023/10/12 04:39:49;;;;;;;8.27;2.87;;;;;;;14.37;100.00;96352.25;5035628;28;20232;-69
2023/10/12 04:42:20;;;;;;;7.73;3.03;;;;;;;14.36;100.00;96366.53;5035004;28;20229;-68
2023/10/12 04:45:02;;;;;;;6.17;3.27;;;;;;;14.53;100.00;96353.75;5035825;28;20205;-68
2023/10/12 04:47:30;;;;;;;6.23;2.80;;;;;;;14.41;100.00;96356.16;5035320;28;20197;-68
2023/10/12 04:49:57;;;;;;;5.73;2.87;;;;;;;14.55;100.00;96359.66;5035464;28;20322;-68
2023/10/12 04:55:20;;;;;;;6.73;2.43;;;;;;;14.61;100.00;96361.53;5034933;28;20663;-68
2023/10/12 04:57:49;;;;;;;11.70;2.70;;;;;;;14.60;100.00;96362.53;5035271;28;20208;-68
2023/10/12 05:00:25;;;;;;;10.13;2.97;;;;;;;14.84;100.00;96358.34;5035146;28;21147;-68
2023/10/12 05:03:05;;;;;;;6.47;2.58;;;;;;;14.63;100.00;96356.84;5035454;28;20315;-68
2023/10/12 05:08:16;;;;;;;5.27;2.50;;;;;;;14.52;100.00;96360.06;5035010;28;20220;-68
2023/10/12 05:10:47;;;;;;;6.23;3.07;;;;;;;14.63;100.00;96353.16;5035293;28;20201;-68
2023/10/12 05:13:19;;;;;;;6.27;3.00;;;;;;;14.74;100.00;96355.25;5034478;28;20698;-68
2023/10/12 05:15:54;;;;;;;6.00;2.73;;;;;;;14.87;100.00;96357.94;5034544;28;20208;-69
2023/10/12 05:18:21;;;;;;;7.07;2.73;;;;;;;14.82;100.00;96362.22;5036413;28;20301;-68
2023/10/12 05:20:48;;;;;;;8.70;2.72;;;;;;;14.71;100.00;96360.97;5039740;28;20197;-68
2023/10/12 05:23:16;;;;;;;8.00;3.57;;;;;;;14.75;100.00;96367.50;5038618;28;20236;-68
2023/10/12 05:25:53;;;;;;;9.33;2.67;;;;;;;14.83;100.00;96371.81;5037978;28;20208;-68
2023/10/12 05:28:21;;;;;;;6.75;2.97;;;;;;;15.02;100.00;96371.88;5038635;28;20306;-68
2023/10/12 05:30:51;;;;;;;5.10;2.60;;;;;;;15.06;100.00;96365.13;5038967;28;20197;-68
2023/10/12 05:33:38;;;;;;;8.97;3.87;;;;;;;14.91;100.00;96377.75;5037828;28;20229;-68
2023/10/12 05:36:08;;;;;;;5.63;2.90;;;;;;;15.05;100.00;96379.41;5038746;28;20283;-68
2023/10/12 05:38:36;;;;;;;7.90;2.90;;;;;;;14.92;100.00;96384.69;5038010;28;20201;-68
2023/10/12 05:41:04;;;;;;;5.65;2.55;;;;;;;14.93;100.00;96389.00;5038509;28;20198;-68
2023/10/12 05:43:33;;;;;;;6.97;2.77;;;;;;;14.89;100.00;96401.03;5038721;28;21074;-68
2023/10/12 05:46:04;;;;;;;9.57;3.20;;;;;;;15.06;100.00;96396.16;5038160;28;20679;-68
2023/10/12 05:48:33;;;;;;;7.50;2.80;;;;;;;14.90;100.00;96386.72;5037636;28;20209;-68
2023/10/12 05:50:59;;;;;;;6.45;2.83;;;;;;;14.88;100.00;96394.06;5038427;28;20554;-68
2023/10/12 05:53:26;;;;;;;6.17;2.90;;;;;;;14.87;100.00;96394.28;5038238;28;20233;-68
2023/10/12 05:55:53;;;;;;;5.10;2.70;;;;;;;14.87;100.00;96386.31;5038121;28;21275;-68
2023/10/12 05:58:19;;;;;;;7.40;3.00;;;;;;;14.97;100.00;96392.03;5037588;28;21270;-68
2023/10/12 06:00:46;;;;;;;8.65;2.78;;;;;;;14.96;100.00;96391.22;5038283;28;20224;-68
2023/10/12 06:03:16;;;;;;;9.83;2.93;;;;;;;15.21;100.00;96389.72;5037358;28;20630;-68
2023/10/12 06:05:43;;;;;;;4.97;2.60;;;;;;;15.20;100.00;96389.84;5037731;28;20259;-68
2023/10/12 06:08:10;;;;;;;9.03;3.43;;;;;;;15.16;100.00;96396.59;5036818;28;20209;-68
2023/10/12 06:10:41;;;;;;;8.38;3.50;;;;;;;15.30;100.00;96399.13;5038350;28;20671;-68
2023/10/12 06:13:09;;;;;;;5.43;3.03;;;;;;;15.28;100.00;96401.13;5037794;28;21310;-68
2023/10/12 06:15:40;;;;;;;5.73;2.53;;;;;;;15.37;100.00;96410.56;5037770;28;20831;-68
2023/10/12 06:18:07;;;;;;;9.48;2.88;;;;;;;15.49;100.00;96414.22;5037347;28;20268;-68
2023/10/12 06:20:36;;;;;;;8.20;2.83;;;;;;;15.68;100.00;96408.97;5038047;28;20204;-68
2023/10/12 06:23:08;;;;;;;4.20;2.20;;;;;;;15.66;100.00;96421.63;5037399;28;20296;-68
2023/10/12 06:25:37;;;;;;;7.97;3.35;;;;;;;15.74;100.00;96417.94;5037816;28;20850;-68
2023/10/12 06:28:07;;;;;;;5.85;2.75;;;;;;;15.63;100.00;96424.69;5036686;28;20300;-68
2023/10/12 06:30:34;;;;;;;6.38;3.05;;;;;;;15.75;100.00;96424.91;5037293;28;20212;-69
2023/10/12 06:33:02;;;;;;;4.65;2.40;;;;;;;15.84;100.00;96430.59;5034747;28;20221;-69
2023/10/12 06:35:33;;;;;;;6.70;2.42;;;;;;;15.87;100.00;96432.03;5034808;28;20201;-68
2023/10/12 06:40:49;;;;;;;4.60;2.17;;;;;;;16.09;100.00;96431.63;5035984;28;20675;-68
2023/10/12 06:46:03;;;;;;;10.77;3.33;;;;;;;16.07;100.00;96428.34;5035877;28;20208;-68
2023/10/12 06:48:44;;;;;;;9.32;3.35;;;;;;;16.14;100.00;96431.00;5035794;28;20284;-68
2023/10/12 06:51:13;;;;;;;8.50;3.70;;;;;;;16.21;100.00;96442.47;5036049;28;20205;-68
2023/10/12 06:53:45;;;;;;;4.93;2.50;;;;;;;16.35;100.00;96439.59;5037071;28;20229;-68
2023/10/12 06:56:24;;;;;;;9.60;4.22;;;;;;;16.40;100.00;96444.31;5037042;28;20206;-69
2023/10/12 07:01:38;;;;;;;9.13;3.20;;;;;;;16.49;100.00;96444.69;5035815;28;20209;-68
2023/10/12 07:04:12;;;;;;;5.80;2.63;;;;;;;16.62;100.00;96446.50;5035933;28;20221;-68
2023/10/12 07:06:39;;;;;;;6.43;2.40;;;;;;;16.64;100.00;96453.25;5035535;28;20196;-68
2023/10/12 07:09:08;;;;;;;8.70;2.78;;;;;;;16.83;100.00;96449.72;5034670;28;20292;-68
2023/10/12 07:11:39;;;;;;;5.72;2.80;;;;;;;16.78;100.00;96454.03;5036171;28;21072;-68
2023/10/12 07:14:06;;;;;;;7.00;3.10;;;;;;;16.99;100.00;96453.75;5035206;28;20263;-68
2023/10/12 07:16:36;;;;;;;5.90;2.63;;;;;;;17.13;100.00;96456.97;5035327;28;20211;-68
2023/10/12 07:19:06;;;;;;;8.23;2.72;;;;;;;17.46;100.00;96449.63;5036152;28;20371;-69
2023/10/12 07:21:32;;;;;;;7.88;2.90;;;;;;;17.67;100.00;96445.81;5035517;28;20205;-69
2023/10/12 07:24:01;;;;;;;8.25;2.53;;;;;;;17.82;100.00;96455.16;5035254;28;20254;-68
2023/10/12 07:26:30;;;;;;;4.18;2.38;;;;;;;17.84;100.00;96455.75;5034113;28;20299;-68
2023/10/12 07:28:57;;;;;;;5.05;2.15;;;;;;;17.67;100.00;96446.66;5035428;28;20208;-68
2023/10/12 07:31:38;;;;;;;9.38;2.88;;;;;;;17.74;100.00;96452.75;5034501;28;20219;-68
2023/10/12 07:34:05;;;;;;;4.90;2.20;;;;;;;17.77;100.00;96458.47;5035166;28;20225;-68
2023/10/12 07:36:57;;;;;;;7.78;2.40;;;;;;;17.68;100.00;96453.63;5035101;28;20204;-68
2023/10/12 07:39:37;;;;;;;5.15;2.10;;;;;;;17.69;100.00;96462.41;5034628;28;20240;-68
2023/10/12 07:42:12;;;;;;;6.07;2.53;;;;;;;17.84;100.00;96451.22;5034863;28;20254;-69
2023/10/12 07:44:41;;;;;;;7.50;2.03;;;;;;;17.63;100.00;96448.13;5035623;28;20280;-69
2023/10/12 07:47:18;;;;;;;8.35;2.72;;;;;;;17.58;100.00;96455.94;5033461;28;20208;-68
2023/10/12 07:49:49;;;;;;;4.28;1.75;;;;;;;17.47;100.00;96453.13;5034246;28;20801;-69
2023/10/12 07:52:31;;;;;;;4.70;1.73;;;;;;;17.73;100.00;96464.44;5035193;28;20340;-68
2023/10/12 07:54:58;;;;;;;5.72;2.10;;;;;;;17.55;100.00;96455.53;5035881;28;20288;-69
2023/10/12 07:57:30;;;;;;;6.45;2.58;;;;;;;17.88;100.00;96459.59;5034714;28;20209;-68
2023/10/12 08:00:29;;;;;;;5.05;2.22;;;;;;;17.76;100.00;96464.03;5034774;28;20247;-68
2023/10/12 08:03:18;;;;;;;4.10;1.73;;;;;;;17.75;100.00;96462.38;5034813;28;20608;-69
2023/10/12 08:05:56;;;;;;;6.15;2.20;;;;;;;17.94;100.00;96461.44;5034788;28;20208;-69
2023/10/12 08:11:18;;;;;;;3.28;1.83;;;;;;;18.03;100.00;96470.78;5030157;28;20200;-69
2023/10/12 08:13:48;;;;;;;3.83;1.90;;;;;;;18.10;100.00;96463.53;5035194;28;20311;-68
2023/10/12 08:16:15;;;;;;;6.63;2.45;;;;;;;17.93;100.00;96459.78;5033203;28;20212;-68
2023/10/12 08:19:09;;;;;;;5.53;2.33;;;;;;;18.16;100.00;96454.69;5034541;28;20270;-69
2023/10/12 08:21:38;;;;;;;7.88;1.98;;;;;;;18.39;100.00;96451.22;5033141;28;20678;-69
2023/10/12 08:24:09;;;;;;;3.42;1.80;;;;;;;18.54;100.00;96453.53;5033899;28;20262;-69
2023/10/12 08:26:47;;;;;;;3.80;1.90;;;;;;;18.63;100.00;96458.34;5033736;28;20224;-69
2023/10/12 08:29:59;;;;;;;4.35;2.15;;;;;;;18.85;100.00;96456.91;5033047;28;20458;-69
2023/10/12 08:32:15;;;;;;;6.80;2.13;;;;;;;18.98;100.00;96467.44;5033444;28;20222;-69
2023/10/12 08:35:10;;;;;;;4.20;1.65;;;;;;;19.14;100.00;96456.16;5034835;28;20216;-69
2023/10/12 08:37:35;;;;;;;6.60;2.10;;;;;;;19.31;100.00;96446.47;5033251;28;20529;-69
2023/10/12 08:40:08;;;;;;;6.30;1.98;;;;;;;19.61;100.00;96451.63;5034007;28;20212;-69
2023/10/12 08:42:39;;;;;;;3.47;1.52;;;;;;;20.04;100.00;96449.56;5034671;28;21042;-69
2023/10/12 08:45:09;;;;;;;5.18;1.95;;;;;;;19.99;100.00;96451.28;5034047;28;20584;-69
2023/10/12 08:47:48;;;;;;;4.15;1.90;;;;;;;20.12;100.00;96453.75;5033032;28;20228;-69
2023/10/12 08:53:03;;;;;;;6.90;1.70;;;;;;;20.64;100.00;96453.66;5034794;28;20916;-69
2023/10/12 08:55:32;;;;;;;4.25;1.48;;;;;;;20.72;100.00;96443.44;5037408;28;20205;-69
2023/10/12 08:58:11;;;;;;;3.78;1.80;;;;;;;20.85;100.00;96448.56;5036487;28;20699;-69
2023/10/12 09:00:43;;;;;;;9.48;2.03;;;;;;;21.10;100.00;96447.22;5038557;28;20225;-69
2023/10/12 09:03:24;;;;;;;6.07;1.67;;;;;;;21.15;100.00;96450.00;5037419;28;20229;-69
2023/10/12 09:05:52;;;;;;;6.00;1.88;;;;;;;21.27;100.00;96441.94;5038893;28;20205;-69
2023/10/12 09:08:39;;;;;;;6.88;1.50;;;;;;;21.25;96.91;96442.16;5037141;28;20206;-69
2023/10/12 09:11:14;;;;;;;8.95;1.70;;;;;;;21.21;96.65;96442.91;5037481;28;20201;-69
2023/10/12 09:13:45;;;;;;;7.00;2.47;;;;;;;21.51;96.42;96437.09;5037138;28;20270;-69
2023/10/12 09:16:17;;;;;;;5.80;1.63;;;;;;;21.77;93.47;96435.72;5037177;28;20201;-69
2023/10/12 09:18:46;;;;;;;2.83;1.40;;;;;;;22.15;92.70;96439.31;5035371;28;20229;-69
2023/10/12 09:21:23;;;;;;;4.50;1.98;;;;;;;22.00;90.28;96440.94;5038934;28;20233;-69
2023/10/12 09:23:52;;;;;;;2.25;1.10;;;;;;;21.96;90.13;96442.47;5037970;28;20224;-69
2023/10/12 09:26:30;;;;;;;1.92;1.20;;;;;;;22.28;90.38;96441.72;5038876;28;20205;-69
2023/10/12 09:29:08;;;;;;;4.13;1.25;;;;;;;22.27;88.82;96448.94;5037336;28;20701;-69
2023/10/12 09:31:54;;;;;;;5.65;2.03;;;;;;;22.39;89.73;96448.84;5038491;28;20217;-70
2023/10/12 09:34:42;;;;;;;4.20;1.90;;;;;;;22.46;88.27;96447.63;5038166;28;21093;-70
2023/10/12 09:37:09;;;;;;;2.85;1.27;;;;;;;22.71;86.98;96438.09;5038768;28;20197;-70
2023/10/12 09:39:36;;;;;;;3.42;0.90;;;;;;;22.58;86.59;96445.69;5038102;28;20197;-69
2023/10/12 09:42:19;;;;;;;8.70;1.75;;;;;;;23.26;84.15;96438.06;5038259;28;20580;-69
2023/10/12 09:44:51;;;;;;;7.82;1.50;;;;;;;23.51;82.86;96439.97;5039033;28;20201;-69
2023/10/12 09:47:25;;;;;;;3.85;1.10;;;;;;;23.76;82.04;96442.97;5037651;28;20694;-69
2023/10/12 09:49:55;;;;;;;4.70;1.60;;;;;;;23.57;81.36;96443.53;5038453;28;20207;-70
2023/10/12 09:52:24;;;;;;;2.90;1.50;;;;;;;23.74;81.74;96439.72;5038563;28;20221;-69
2023/10/12 09:54:59;;;;;;;1.70;1.20;;;;;;;23.84;80.12;96439.84;5038394;28;20217;-70
2023/10/12 09:57:26;;;;;;;2.65;1.52;;;;;;;23.51;78.74;96439.97;5038067;28;20231;-69
2023/10/12 09:59:54;;;;;;;2.10;1.52;;;;;;;23.91;78.75;96439.63;5037795;28;20205;-70
2023/10/12 10:02:30;;;;;;;4.47;1.10;;;;;;;24.14;75.85;96432.81;5037990;28;20233;-70
2023/10/12 10:05:11;;;;;;;3.30;1.88;;;;;;;24.18;75.16;96443.91;5036859;28;20213;-70
2023/10/12 10:07:53;;;;;;;4.75;1.55;;;;;;;24.45;76.20;96444.69;5038092;28;20286;-70
2023/10/12 10:10:31;;;;;;;5.25;1.33;;;;;;;24.29;73.91;96453.72;5037735;28;20216;-70
2023/10/12 10:12:59;;;;;;;7.70;1.55;;;;;;;24.41;75.29;96451.69;5037835;28;20256;-70
2023/10/12 10:15:36;;;;;;;9.35;2.05;;;;;;;24.51;73.46;96449.06;5038334;28;20201;-70
2023/10/12 10:18:05;;;;;;;2.00;1.20;;;;;;;24.40;74.48;96452.75;5036544;28;20201;-70
2023/10/12 10:20:56;;;;;;;3.63;2.50;;;;;;;24.21;73.65;96446.91;5037967;28;20210;-69
2023/10/12 10:23:23;;;;;;;2.97;1.45;;;;;;;23.86;73.94;96443.06;5037714;28;20228;-70
2023/10/12 10:26:16;;;;;;;2.85;1.33;;;;;;;24.06;73.74;96437.88;5037844;28;20259;-70
2023/10/12 10:28:53;;;;;;;5.45;1.35;;;;;;;24.35;73.89;96431.94;5037191;28;20197;-70
2023/10/12 10:31:25;;;;;;;1.45;1.02;;;;;;;24.49;72.61;96433.16;5038155;28;20304;-70
2023/10/12 10:33:57;;;;;;;4.30;1.20;;;;;;;24.72;72.66;96414.72;5037359;28;20240;-70
2023/10/12 10:36:28;;;;;;;6.35;1.95;;;;;;;24.74;73.39;96420.66;5036940;28;20201;-70
2023/10/12 10:38:55;;;;;;;3.42;1.60;;;;;;;24.53;72.73;96423.50;5037735;28;20248;-70
2023/10/12 10:41:38;;;;;;;2.72;1.60;;;;;;;24.86;72.04;96418.59;5036935;28;20205;-70
2023/10/12 10:44:08;;;;;;;6.53;1.58;;;;;;;24.85;72.98;96406.16;5036396;28;20224;-70
2023/10/12 10:46:40;;;;;;;2.25;1.05;;;;;;;24.93;71.66;96416.44;5038766;28;20205;-70
2023/10/12 10:49:09;;;;;;;5.80;1.95;;;;;;;24.74;69.07;96404.47;5036744;28;20197;-69
2023/10/12 10:51:40;;;;;;;4.43;1.85;;;;;;;24.89;70.09;96406.47;5037187;28;20209;-69
2023/10/12 10:54:17;;;;;;;4.28;1.70;;;;;;;24.76;69.07;96410.44;5037013;28;20225;-69
2023/10/12 10:56:47;;;;;;;3.08;1.65;;;;;;;24.79;69.43;96399.13;5038047;28;20212;-70
2023/10/12 10:59:17;;;;;;;3.53;1.30;;;;;;;24.91;71.11;96380.03;5036479;28;20257;-70
2023/10/12 11:01:48;;;;;;;6.90;1.77;;;;;;;24.93;72.56;96396.78;5036387;28;20274;-70
2023/10/12 11:04:39;;;;;;;3.17;1.60;;;;;;;25.24;69.90;96388.56;5037268;28;20216;-69
2023/10/12 11:07:11;;;;;;;3.17;1.38;;;;;;;25.52;68.92;96393.53;5036607;28;20236;-70
2023/10/12 11:12:25;;;;;;;4.70;1.35;;;;;;;25.83;68.27;96386.06;5023461;28;20312;-70
2023/10/12 11:14:58;;;;;;;4.50;1.48;;;;;;;25.69;69.21;96386.00;5036075;28;20221;-70
2023/10/12 11:17:26;;;;;;;2.72;1.40;;;;;;;25.85;68.65;96383.09;5031685;28;20271;-70
2023/10/12 11:19:54;;;;;;;6.65;2.03;;;;;;;25.86;67.40;96382.84;5035494;28;20204;-70
2023/10/12 11:22:21;;;;;;;5.35;1.17;;;;;;;25.75;65.88;96374.19;5035440;28;20601;-70
2023/10/12 11:24:49;;;;;;;4.25;1.90;;;;;;;25.69;65.66;96383.31;5036090;28;20202;-70
2023/10/12 11:27:30;;;;;;;4.50;1.77;;;;;;;25.97;64.31;96379.06;5035690;28;20584;-69
2023/10/12 11:30:00;;;;;;;3.28;1.42;;;;;;;25.75;64.23;96375.00;5035114;28;20232;-70
2023/10/12 11:32:28;;;;;;;4.32;1.60;;;;;;;26.01;64.46;96377.44;5035067;28;20237;-70
2023/10/12 11:34:59;;;;;;;3.35;1.67;;;;;;;26.02;64.68;96370.97;5035842;28;20252;-70
2023/10/12 11:37:28;;;;;;;2.22;1.10;;;;;;;25.99;63.03;96371.50;5035534;28;20201;-69
2023/10/12 11:39:55;;;;;;;1.80;1.10;;;;;;;26.03;62.52;96375.28;5035532;28;20201;-70
2023/10/12 11:42:22;;;;;;;2.15;1.50;;;;;;;26.20;64.55;96369.63;5035423;28;20228;-70
2023/10/12 11:44:51;;;;;;;4.32;1.13;;;;;;;26.09;63.80;96366.09;5034784;28;20352;-70
2023/10/12 11:47:37;;;;;;;3.20;1.67;;;;;;;26.61;62.32;96363.94;5035148;28;20232;-70
2023/10/12 11:50:09;;;;;;;5.78;1.65;;;;;;;26.17;63.06;96368.28;5035033;28;20200;-70
2023/10/12 11:52:37;;;;;;;5.82;1.92;;;;;;;25.83;60.95;96369.88;5035135;28;20233;-69
2023/10/12 11:55:06;;;;;;;1.40;1.00;;;;;;;26.17;59.73;96376.38;5035049;28;20221;-70
2023/10/12 11:57:33;;;;;;;3.15;1.70;;;;;;;26.28;58.26;96369.06;5036039;28;20212;-69
2023/10/12 12:00:00;;;;;;;7.85;1.10;;;;;;;26.08;58.21;96369.06;5034412;28;20207;-69
2023/10/12 12:02:27;;;;;;;3.78;1.95;;;;;;;26.36;58.33;96366.66;5034670;28;20240;-69
2023/10/12 12:04:53;;;;;;;5.43;1.40;;;;;;;26.45;57.32;96370.44;5035237;28;20201;-69
2023/10/12 12:07:21;;;;;;;2.17;1.27;;;;;;;26.52;56.44;96360.97;5035318;28;20283;-69
2023/10/12 12:09:49;;;;;;;4.90;1.20;;;;;;;26.14;57.47;96363.41;5034574;28;20570;-70
2023/10/12 12:12:16;;;;;;;3.00;1.45;;;;;;;26.09;56.26;96373.41;5034329;28;20217;-69
2023/10/12 12:14:46;;;;;;;3.45;1.42;;;;;;;26.33;55.46;96364.47;5034634;28;20749;-69
2023/10/12 12:17:13;;;;;;;2.78;1.63;;;;;;;26.30;55.17;96366.91;5034393;28;20211;-69
2023/10/12 12:19:41;;;;;;;2.25;1.20;;;;;;;26.33;54.05;96363.66;5034160;28;20215;-69